Time;durP1;ratioP1;P1;durP2;ratioP2;P2;SDS_P1;SDS_P2;PMS_P1;PMS_P2;Temp;Humidity;BMP_temperature;BMP_pressure;BME280_temperature;BME280_humidity;BME280_pressure;Samples;Min_cycle;Max_cycle;Signal;HPM_P1;HPM_P2
2021/12/18 02:51:59;;;;;;;0.25;0.25;;;;;;;8.98;100.00;102272.31;4914828;23;20099;-83
2021/12/18 02:55:03;;;;;;;6.22;0.52;;;;;;;8.94;100.00;102276.31;4921369;29;20050;-83
2021/12/18 02:58:06;;;;;;;0.95;0.20;;;;;;;8.97;100.00;102261.59;4932306;29;20529;-83
2021/12/18 03:01:12;;;;;;;6.55;0.85;;;;;;;9.00;100.00;102272.69;4921866;29;20042;-83
2021/12/18 03:04:23;;;;;;;0.10;0.10;;;;;;;8.93;100.00;102269.97;4932890;29;20098;-83
2021/12/18 03:07:28;;;;;;;0.10;0.10;;;;;;;8.87;100.00;102271.59;4931721;29;20103;-83
2021/12/18 03:23:50;;;;;;;0.65;0.10;;;;;;;8.95;100.00;102258.44;4932671;29;20630;-83
2021/12/18 03:26:53;;;;;;;0.60;0.60;;;;;;;8.91;100.00;102261.25;4920808;29;20050;-83
2021/12/18 03:29:57;;;;;;;0.98;0.40;;;;;;;8.91;100.00;102266.00;4931815;29;20126;-83
2021/12/18 03:33:00;;;;;;;1.15;0.25;;;;;;;8.88;100.00;102262.03;4933240;29;20092;-82
2021/12/18 03:36:04;;;;;;;0.70;0.43;;;;;;;8.93;100.00;102264.41;4932586;29;20111;-83
2021/12/18 03:39:07;;;;;;;4.68;0.73;;;;;;;8.95;100.00;102262.00;4918659;29;20461;-82
2021/12/18 03:42:10;;;;;;;0.38;0.30;;;;;;;8.94;100.00;102263.19;4932626;29;20127;-82
2021/12/18 03:45:15;;;;;;;4.13;0.55;;;;;;;8.98;100.00;102263.97;4931865;29;20171;-82
2021/12/18 03:48:19;;;;;;;0.20;0.20;;;;;;;8.99;100.00;102262.78;4917445;29;20043;-83
2021/12/18 03:54:28;;;;;;;0.25;0.15;;;;;;;8.97;100.00;102248.50;5920961;24;20098;-85
2021/12/18 03:57:31;;;;;;;0.43;0.30;;;;;;;8.93;100.00;102250.50;5921180;24;20121;-84
2021/12/18 04:00:35;;;;;;;0.32;0.20;;;;;;;8.94;100.00;102254.84;5921336;24;20034;-84
2021/12/18 04:03:38;;;;;;;0.17;0.10;;;;;;;8.96;100.00;102249.69;5921417;24;20037;-85
2021/12/18 04:06:42;;;;;;;0.47;0.47;;;;;;;8.99;100.00;102246.09;5905144;24;20042;-84
2021/12/18 04:09:48;;;;;;;0.40;0.40;;;;;;;9.00;100.00;102244.13;5922019;24;20712;-84
2021/12/18 04:12:59;;;;;;;0.88;0.30;;;;;;;9.02;100.00;102252.84;5922478;24;20382;-85
2021/12/18 04:16:02;;;;;;;0.40;0.28;;;;;;;9.03;100.00;102248.88;5921024;24;20034;-85
2021/12/18 04:19:06;;;;;;;0.20;0.17;;;;;;;9.00;100.00;102247.69;5906451;24;20114;-85
2021/12/18 04:22:08;;;;;;;6.50;0.32;;;;;;;9.02;100.00;102248.06;5921807;24;20033;-83
2021/12/18 04:25:11;;;;;;;0.25;0.25;;;;;;;9.00;100.00;102252.44;5922178;24;20058;-85
2021/12/18 04:28:14;;;;;;;0.10;0.08;;;;;;;8.96;100.00;102246.94;5922055;24;20054;-84
2021/12/18 04:31:17;;;;;;;0.10;0.10;;;;;;;9.01;100.00;102254.81;5922241;24;20038;-84
2021/12/18 04:34:20;;;;;;;0.15;0.15;;;;;;;9.04;100.00;102248.44;5922170;24;20411;-85
2021/12/18 04:37:23;;;;;;;0.55;0.30;;;;;;;9.05;100.00;102260.38;5921742;24;20090;-85
2021/12/18 04:40:27;;;;;;;0.10;0.10;;;;;;;9.05;100.00;102261.13;5922314;24;20062;-85
2021/12/18 04:43:30;;;;;;;0.20;0.20;;;;;;;9.00;100.00;102261.59;5922389;24;20037;-86
2021/12/18 04:46:33;;;;;;;0.10;0.10;;;;;;;9.06;100.00;102259.94;5921892;24;20544;-85
2021/12/18 04:49:36;;;;;;;0.55;0.40;;;;;;;9.05;100.00;102261.13;5922216;24;20113;-85
2021/12/18 04:52:39;;;;;;;2.63;0.15;;;;;;;9.07;100.00;102264.31;5283435;23;20146;-81
2021/12/18 04:55:42;;;;;;;2.38;0.10;;;;;;;9.09;100.00;102264.72;4924210;29;20509;-81
2021/12/18 04:58:45;;;;;;;0.10;0.10;;;;;;;9.15;100.00;102260.28;4908694;29;20512;-82
2021/12/18 05:01:51;;;;;;;0.80;0.30;;;;;;;9.15;100.00;102260.28;4924029;29;20358;-82
2021/12/18 05:04:54;;;;;;;0.45;0.30;;;;;;;9.18;100.00;102264.25;4910052;29;20090;-85
2021/12/18 05:07:56;;;;;;;0.10;0.10;;;;;;;9.14;100.00;102264.25;4924460;29;20059;-83
2021/12/18 05:10:59;;;;;;;0.10;0.10;;;;;;;9.11;100.00;102253.19;4924628;29;20058;-83
2021/12/18 05:14:02;;;;;;;1.10;0.75;;;;;;;9.16;100.00;102255.50;4936756;29;20608;-83
2021/12/18 05:17:05;;;;;;;0.63;0.32;;;;;;;9.16;100.00;102261.88;4925354;29;20058;-85
2021/12/18 05:20:08;;;;;;;0.32;0.20;;;;;;;9.18;100.00;102247.56;4925752;29;20051;-86
2021/12/18 05:23:11;;;;;;;0.10;0.10;;;;;;;9.19;100.00;102249.16;4912865;29;20050;-86
2021/12/18 05:26:14;;;;;;;0.28;0.28;;;;;;;9.20;100.00;102249.94;4925869;29;20152;-86
2021/12/18 05:29:17;;;;;;;3.58;0.28;;;;;;;9.21;100.00;102257.88;4912975;29;20082;-86
2021/12/18 05:32:20;;;;;;;0.30;0.30;;;;;;;9.18;100.00;102258.69;4926302;29;20055;-87
2021/12/18 05:35:23;;;;;;;0.40;0.38;;;;;;;9.14;100.00;102258.69;4925635;29;20103;-86
2021/12/18 05:38:25;;;;;;;0.30;0.10;;;;;;;9.11;100.00;102253.19;4925801;29;20102;-85
2021/12/18 05:41:28;;;;;;;0.20;0.13;;;;;;;9.10;100.00;102251.59;4925542;29;20090;-85
2021/12/18 05:44:31;;;;;;;0.50;0.50;;;;;;;9.07;100.00;102247.63;4925659;29;20160;-85
2021/12/18 05:47:35;;;;;;;0.10;0.10;;;;;;;9.10;100.00;102257.94;4919612;29;20051;-85
2021/12/18 05:50:38;;;;;;;0.15;0.15;;;;;;;9.02;100.00;102250.84;4936956;29;20054;-84
2021/12/18 06:52:58;;;;;;;0.10;0.05;;;;;;;8.87;100.00;102254.91;4896046;23;20102;-47
2021/12/18 06:56:03;;;;;;;0.10;0.10;;;;;;;8.90;100.00;102247.75;4939445;28;20483;-47
2021/12/18 06:59:06;;;;;;;1.77;0.35;;;;;;;8.82;100.00;102249.78;4952679;28;20062;-47
2021/12/18 07:02:10;;;;;;;2.78;0.47;;;;;;;8.84;100.00;102255.72;4951986;28;20061;-47
2021/12/18 07:05:13;;;;;;;0.28;0.28;;;;;;;8.85;100.00;102251.75;4951652;28;20058;-47
2021/12/18 07:08:16;;;;;;;1.27;0.88;;;;;;;8.87;100.00;102249.34;4952187;28;20134;-47
2021/12/18 07:11:19;;;;;;;1.55;0.52;;;;;;;8.91;100.00;102243.75;4952304;28;20061;-47
2021/12/18 07:14:22;;;;;;;0.10;0.10;;;;;;;8.91;100.00;102249.31;4952546;28;20058;-47
2021/12/18 07:17:25;;;;;;;0.82;0.65;;;;;;;8.90;100.00;102250.53;4952386;28;20098;-47
2021/12/18 07:20:28;;;;;;;2.13;0.68;;;;;;;8.88;100.00;102253.69;4951377;28;20074;-47
2021/12/18 07:23:31;;;;;;;1.10;0.20;;;;;;;8.90;100.00;102256.09;4950994;28;20518;-47
2021/12/18 07:26:34;;;;;;;2.05;0.52;;;;;;;8.85;100.00;102259.28;4951943;28;20679;-47
2021/12/18 07:29:37;;;;;;;0.32;0.10;;;;;;;8.80;100.00;102260.50;4952289;28;20605;-47
2021/12/18 07:32:42;;;;;;;4.03;0.40;;;;;;;8.80;100.00;102254.16;4951230;28;20090;-47
2021/12/18 07:35:45;;;;;;;0.50;0.45;;;;;;;8.83;100.00;102247.78;4952555;28;20051;-47
2021/12/18 07:38:48;;;;;;;0.65;0.28;;;;;;;8.83;100.00;102254.16;4950329;28;20090;-47
2021/12/18 07:41:51;;;;;;;3.20;0.82;;;;;;;8.75;100.00;102257.38;4951476;28;20379;-47
2021/12/18 07:44:54;;;;;;;0.70;0.35;;;;;;;8.72;100.00;102252.59;4951905;28;20074;-47
2021/12/18 07:47:57;;;;;;;1.35;0.55;;;;;;;8.66;100.00;102260.59;4951333;28;20097;-47
2021/12/18 07:51:00;;;;;;;1.25;0.68;;;;;;;8.63;100.00;102264.16;4951626;28;20055;-47
2021/12/18 07:53:53;;;;;;;1.55;0.55;;;;;;;8.61;100.00;102263.78;4926742;29;20098;-48
2021/12/18 07:56:56;;;;;;;2.85;0.77;;;;;;;8.63;100.00;102266.94;4921215;29;20055;-48
2021/12/18 07:59:59;;;;;;;0.30;0.25;;;;;;;8.65;100.00;102275.66;4905600;29;20542;-48
2021/12/18 08:03:03;;;;;;;1.35;0.57;;;;;;;8.62;100.00;102276.44;4920771;29;20114;-48
2021/12/18 08:06:06;;;;;;;2.40;0.52;;;;;;;8.63;100.00;102278.03;4921023;29;20415;-48
2021/12/18 08:09:09;;;;;;;5.53;1.02;;;;;;;8.62;100.00;102270.88;4937564;29;20051;-48
2021/12/18 08:12:12;;;;;;;0.38;0.15;;;;;;;8.67;100.00;102276.03;4921083;29;20050;-48
2021/12/18 08:15:15;;;;;;;0.70;0.25;;;;;;;8.65;100.00;102270.09;4932629;29;20051;-48
2021/12/18 08:18:18;;;;;;;2.55;0.47;;;;;;;8.68;100.00;102274.84;4932525;29;20217;-48
2021/12/18 08:21:21;;;;;;;0.30;0.25;;;;;;;8.65;100.00;102275.66;4921198;29;20054;-48
2021/12/18 08:24:24;;;;;;;0.50;0.40;;;;;;;8.68;100.00;102274.06;4920778;29;20055;-48
2021/12/18 08:27:27;;;;;;;0.38;0.30;;;;;;;8.60;100.00;102273.28;4932155;29;20059;-48
2021/12/18 08:30:33;;;;;;;0.40;0.40;;;;;;;8.65;100.00;102286.75;4919603;29;20063;-48
2021/12/18 08:33:36;;;;;;;2.58;0.95;;;;;;;8.63;100.00;102291.94;4920436;29;20054;-49
2021/12/18 08:36:39;;;;;;;0.63;0.20;;;;;;;8.63;100.00;102296.69;4932422;29;20135;-48
2021/12/18 08:39:42;;;;;;;0.20;0.20;;;;;;;8.61;100.00;102291.53;4934992;29;20062;-48
2021/12/18 08:42:46;;;;;;;0.57;0.30;;;;;;;8.67;100.00;102289.13;4932807;29;20439;-48
2021/12/18 08:45:49;;;;;;;1.80;0.68;;;;;;;8.64;100.00;102284.41;4932171;29;20587;-50
2021/12/18 08:48:52;;;;;;;0.45;0.45;;;;;;;8.67;100.00;102300.25;4921295;29;20145;-51
2021/12/18 09:52:35;;;;;;;1.65;0.50;;;;;;;9.00;100.00;102291.34;4955861;23;20107;-57
2021/12/18 09:55:38;;;;;;;1.30;0.57;;;;;;;9.06;100.00;102290.53;4945600;28;20119;-60
2021/12/18 09:58:41;;;;;;;4.30;0.85;;;;;;;9.07;100.00;102292.09;4937796;29;20058;-56
2021/12/18 10:01:45;;;;;;;0.35;0.30;;;;;;;9.09;100.00;102289.72;4953191;28;20411;-57
2021/12/18 10:04:48;;;;;;;0.35;0.25;;;;;;;9.16;100.00;102289.66;4953783;28;20054;-55
2021/12/18 10:08:24;;;;;;;2.20;0.55;;;;;;;9.14;100.00;102297.63;4953615;28;20097;-55
2021/12/18 10:11:27;;;;;;;0.25;0.15;;;;;;;9.11;100.00;102304.00;4931218;28;20396;-55
2021/12/18 10:14:33;;;;;;;0.10;0.10;;;;;;;9.11;100.00;102304.00;4953632;28;20058;-55
2021/12/18 10:17:39;;;;;;;0.13;0.13;;;;;;;9.15;100.00;102307.56;4953593;28;20062;-55
2021/12/18 10:20:41;;;;;;;0.50;0.40;;;;;;;9.20;100.00;102297.19;4953183;28;20062;-55
2021/12/18 10:23:47;;;;;;;1.08;0.55;;;;;;;9.25;100.00;102307.91;4952686;28;20062;-55
2021/12/18 10:26:50;;;;;;;2.40;0.82;;;;;;;9.35;100.00;102301.47;4941865;28;20102;-55
2021/12/18 10:30:06;;;;;;;0.90;0.43;;;;;;;9.38;100.00;102303.41;4953367;28;20062;-55
2021/12/18 10:33:11;;;;;;;1.42;0.30;;;;;;;9.40;100.00;102293.47;4938825;28;20182;-55
2021/12/18 10:36:15;;;;;;;1.48;0.32;;;;;;;9.46;100.00;102299.41;4952766;28;20058;-56
2021/12/18 10:39:19;;;;;;;1.35;0.43;;;;;;;9.40;100.00;102296.25;4940294;28;20523;-55
2021/12/18 10:42:53;;;;;;;0.60;0.60;;;;;;;9.40;100.00;102303.81;4953179;28;20117;-54
2021/12/18 10:45:56;;;;;;;4.55;0.55;;;;;;;9.39;100.00;102305.00;4944985;28;20134;-54
2021/12/18 10:49:02;;;;;;;0.25;0.25;;;;;;;9.44;100.00;102299.03;4936827;28;20105;-55
2021/12/18 10:52:05;;;;;;;0.43;0.15;;;;;;;9.48;100.00;102303.38;4951768;28;20054;-55
2021/12/18 10:55:09;;;;;;;0.55;0.40;;;;;;;9.43;100.00;102298.22;4951488;28;20118;-54
2021/12/18 10:58:16;;;;;;;1.10;0.50;;;;;;;9.38;100.00;102295.06;4946013;28;20043;-54
2021/12/18 11:01:19;;;;;;;2.40;0.20;;;;;;;9.44;100.00;102299.78;4952345;28;20110;-54
2021/12/18 11:04:28;;;;;;;0.55;0.45;;;;;;;9.51;100.00;102290.59;4952726;28;20058;-55
2021/12/18 11:07:41;;;;;;;0.20;0.20;;;;;;;9.53;100.00;102291.03;4951684;28;20562;-58
2021/12/18 11:10:54;;;;;;;1.30;0.60;;;;;;;9.60;100.00;102285.38;4952197;28;20455;-58
2021/12/18 11:13:58;;;;;;;3.92;0.70;;;;;;;9.70;100.00;102279.72;4950421;28;20110;-58
2021/12/18 11:17:03;;;;;;;0.73;0.65;;;;;;;9.74;100.00;102274.16;4952126;28;20082;-58
2021/12/18 11:20:06;;;;;;;4.15;0.73;;;;;;;9.73;100.00;102272.56;4952407;28;20117;-58
2021/12/18 11:23:10;;;;;;;1.00;0.40;;;;;;;9.83;100.00;102274.47;4951585;28;20082;-60
2021/12/18 11:26:14;;;;;;;0.10;0.10;;;;;;;9.82;100.00;102270.09;4950958;28;20133;-59
2021/12/18 11:29:25;;;;;;;1.65;0.73;;;;;;;9.82;100.00;102265.31;4932601;28;20150;-59
2021/12/18 11:32:34;;;;;;;9.70;1.25;;;;;;;9.88;100.00;102276.78;4950940;28;20356;-59
2021/12/18 11:35:37;;;;;;;1.45;0.28;;;;;;;9.94;100.00;102264.00;4952595;28;20138;-59
2021/12/18 11:38:44;;;;;;;2.55;0.73;;;;;;;9.92;100.00;102258.06;4951506;28;20055;-60
2021/12/18 11:41:51;;;;;;;1.85;0.32;;;;;;;9.95;100.00;102257.25;4951037;28;20085;-60
2021/12/18 11:44:56;;;;;;;4.78;0.77;;;;;;;9.87;100.00;102261.31;4952177;28;20061;-59
2021/12/18 11:48:01;;;;;;;2.28;0.10;;;;;;;9.85;100.00;102253.34;4949136;28;20099;-59
2021/12/18 11:51:12;;;;;;;1.10;1.10;;;;;;;9.82;100.00;102254.19;4951566;28;20058;-59
2021/12/18 11:54:44;;;;;;;0.30;0.20;;;;;;;9.70;100.00;102249.13;4951349;28;20062;-59
2021/12/18 11:57:50;;;;;;;1.27;0.43;;;;;;;9.73;100.00;102250.28;4949377;29;20083;-59
2021/12/18 12:01:03;;;;;;;0.80;0.55;;;;;;;9.79;100.00;102243.06;4951011;28;20054;-59
2021/12/18 12:04:05;;;;;;;0.57;0.57;;;;;;;9.75;100.00;102245.09;4951404;28;20058;-59
2021/12/18 12:07:21;;;;;;;2.28;0.40;;;;;;;9.79;100.00;102248.63;4951821;28;20113;-60
2021/12/18 12:10:47;;;;;;;0.20;0.20;;;;;;;9.77;100.00;102245.47;4950971;28;20058;-59
2021/12/18 12:14:02;;;;;;;1.58;0.98;;;;;;;9.79;100.00;102248.63;4951624;28;20446;-59
2021/12/18 12:17:12;;;;;;;1.58;0.20;;;;;;;9.92;100.00;102235.78;4951137;28;20050;-59
2021/12/18 12:20:32;;;;;;;0.40;0.20;;;;;;;9.97;100.00;102232.56;4940414;28;20070;-59
2021/12/18 12:24:02;;;;;;;0.75;0.55;;;;;;;9.82;100.00;102237.50;4950539;28;20049;-59
2021/12/18 12:27:25;;;;;;;1.48;0.73;;;;;;;9.80;100.00;102228.75;4953550;28;20098;-59
2021/12/18 12:30:36;;;;;;;5.57;0.30;;;;;;;9.89;100.00;102225.50;4946259;28;20054;-59
2021/12/18 12:33:39;;;;;;;3.17;1.00;;;;;;;9.94;100.00;102219.47;4954786;28;20514;-59
2021/12/18 12:36:45;;;;;;;2.83;0.75;;;;;;;9.99;100.00;102218.22;4954577;28;20121;-59
2021/12/18 12:39:52;;;;;;;1.15;0.85;;;;;;;9.96;100.00;102211.50;4939069;29;20145;-59
2021/12/18 12:43:21;;;;;;;1.95;0.43;;;;;;;10.02;100.00;102218.19;4954389;28;20090;-59
2021/12/18 12:46:25;;;;;;;1.50;0.80;;;;;;;10.03;100.00;102203.06;4952890;28;20058;-59
2021/12/18 12:49:29;;;;;;;0.20;0.20;;;;;;;10.09;100.00;102195.06;4952467;28;20054;-60
2021/12/18 12:52:31;;;;;;;3.70;0.40;;;;;;;10.10;100.00;102183.50;4955089;28;20098;-56
2021/12/18 12:55:47;;;;;;;0.68;0.52;;;;;;;10.13;100.00;102195.84;4954857;28;20058;-58
2021/12/18 12:59:25;;;;;;;4.13;1.00;;;;;;;10.15;100.00;102187.84;4954721;28;20062;-58
2021/12/18 13:02:30;;;;;;;0.57;0.20;;;;;;;10.27;100.00;102184.50;4916058;29;20082;-58
2021/12/18 13:05:45;;;;;;;3.22;0.55;;;;;;;10.39;100.00;102181.19;4953913;28;20150;-58
2021/12/18 13:08:50;;;;;;;1.05;0.55;;;;;;;10.34;100.00;102167.72;4954761;28;20518;-58
2021/12/18 13:12:05;;;;;;;2.38;0.75;;;;;;;10.39;100.00;102175.63;4953953;28;20050;-58
2021/12/18 13:15:08;;;;;;;4.60;0.90;;;;;;;10.29;100.00;102174.53;4954115;28;20109;-59
2021/12/18 13:18:11;;;;;;;2.65;0.68;;;;;;;10.15;100.00;102171.16;4954728;28;20399;-58
2021/12/18 13:21:14;;;;;;;1.45;0.20;;;;;;;10.13;100.00;102173.56;4954498;28;20126;-58
2021/12/18 13:24:17;;;;;;;0.17;0.17;;;;;;;10.07;100.00;102175.97;4942676;29;20079;-58
2021/12/18 13:27:20;;;;;;;0.60;0.30;;;;;;;10.00;100.00;102176.06;4953554;28;20077;-59
2021/12/18 13:30:24;;;;;;;1.55;0.60;;;;;;;10.00;100.00;102178.84;4940403;28;20066;-58
2021/12/18 13:33:29;;;;;;;4.28;1.38;;;;;;;10.01;100.00;102183.19;4953342;28;20138;-58
2021/12/18 13:36:47;;;;;;;3.88;1.00;;;;;;;10.05;100.00;102183.94;4952429;28;20479;-58
2021/12/18 13:39:50;;;;;;;3.78;0.85;;;;;;;10.09;100.00;102179.13;4952806;28;20055;-60
2021/12/18 13:43:05;;;;;;;1.73;0.60;;;;;;;10.10;100.00;102174.34;4952112;28;20058;-60
2021/12/18 13:46:10;;;;;;;1.15;0.35;;;;;;;10.09;100.00;102168.00;4953526;28;20131;-60
2021/12/18 13:49:14;;;;;;;1.25;0.98;;;;;;;10.17;100.00;102163.16;4953155;28;20066;-60
2021/12/18 13:52:39;;;;;;;2.38;1.23;;;;;;;10.16;100.00;102167.16;4952222;28;20399;-60
2021/12/18 13:55:47;;;;;;;2.28;1.00;;;;;;;10.09;100.00;102165.22;4953441;28;20054;-60
2021/12/18 13:58:50;;;;;;;1.60;0.75;;;;;;;10.00;100.00;102164.94;4947101;28;20051;-60
2021/12/18 14:01:53;;;;;;;2.08;1.17;;;;;;;9.94;100.00;102169.34;4949301;28;20674;-60
2021/12/18 14:04:56;;;;;;;1.20;0.70;;;;;;;9.96;100.00;102163.41;4944079;28;20058;-60
2021/12/18 14:07:59;;;;;;;3.92;1.65;;;;;;;9.88;100.00;102162.69;4951963;28;20054;-59
2021/12/18 14:11:05;;;;;;;0.73;0.73;;;;;;;9.79;100.00;102165.16;4952985;28;20099;-60
2021/12/18 14:14:11;;;;;;;0.57;0.57;;;;;;;9.89;100.00;102161.47;4951847;28;20054;-60
2021/12/18 14:17:36;;;;;;;2.40;1.17;;;;;;;9.89;100.00;102161.47;4952916;28;20131;-59
2021/12/18 14:20:46;;;;;;;2.13;0.30;;;;;;;9.87;100.00;102161.13;4940126;29;20062;-60
2021/12/18 14:23:49;;;;;;;5.78;0.95;;;;;;;9.92;100.00;102157.84;4942080;29;20057;-59
2021/12/18 14:27:04;;;;;;;1.15;0.82;;;;;;;9.85;100.00;102155.19;4952506;28;20419;-61
2021/12/18 14:30:21;;;;;;;1.40;1.05;;;;;;;9.77;100.00;102156.44;4952370;28;20054;-59
2021/12/18 14:33:25;;;;;;;0.98;0.80;;;;;;;9.74;100.00;102158.06;4953195;28;20062;-59
2021/12/18 14:36:52;;;;;;;1.75;0.40;;;;;;;9.76;100.00;102160.44;4951194;28;20146;-58
2021/12/18 14:39:57;;;;;;;3.15;1.00;;;;;;;9.73;100.00;102156.47;4948896;28;20082;-60
2021/12/18 14:43:11;;;;;;;1.20;1.20;;;;;;;9.72;100.00;102146.53;4951963;28;20118;-59
2021/12/18 14:46:18;;;;;;;2.67;1.25;;;;;;;9.65;100.00;102152.22;4952091;28;20141;-59
2021/12/18 14:49:22;;;;;;;0.82;0.65;;;;;;;9.68;100.00;102143.00;4953014;28;20070;-60
2021/12/18 14:52:26;;;;;;;0.93;0.77;;;;;;;9.70;100.00;102137.06;4951520;28;20539;-59
2021/12/18 14:55:44;;;;;;;6.80;1.05;;;;;;;9.65;100.00;102155.00;4952222;28;20062;-59
2021/12/18 14:58:47;;;;;;;3.92;0.50;;;;;;;9.66;100.00;102145.44;4938025;29;20523;-59
2021/12/18 15:02:01;;;;;;;2.50;0.63;;;;;;;9.58;100.00;102148.69;4951009;28;20073;-59
2021/12/18 15:05:10;;;;;;;4.10;1.13;;;;;;;9.47;100.00;102146.03;4939243;28;20563;-59
2021/12/18 15:08:17;;;;;;;3.60;0.98;;;;;;;9.43;100.00;102141.69;4952048;28;20125;-59
2021/12/18 15:11:24;;;;;;;3.22;0.30;;;;;;;9.37;100.00;102135.00;4951006;28;20057;-58
2021/12/18 15:14:36;;;;;;;10.32;1.55;;;;;;;9.38;100.00;102133.78;4948003;28;20065;-57
2021/12/18 15:17:39;;;;;;;1.85;0.85;;;;;;;9.42;100.00;102140.13;4947857;28;20050;-54
2021/12/18 15:20:42;;;;;;;1.80;1.08;;;;;;;9.42;100.00;102134.56;4949980;28;20050;-55
2021/12/18 15:23:46;;;;;;;3.03;0.82;;;;;;;9.38;100.00;102133.78;4947605;28;20062;-55
2021/12/18 15:26:52;;;;;;;5.03;0.98;;;;;;;9.28;100.00;102135.47;4951239;28;20054;-61
2021/12/18 15:29:55;;;;;;;5.03;0.85;;;;;;;9.15;100.00;102129.66;4950458;28;21104;-60
2021/12/18 15:32:58;;;;;;;2.13;0.57;;;;;;;9.13;100.00;102132.03;4952524;28;20101;-60
2021/12/18 15:36:04;;;;;;;1.27;0.95;;;;;;;9.16;100.00;102128.44;4950487;28;20102;-61
2021/12/18 15:39:08;;;;;;;1.70;1.13;;;;;;;9.12;100.00;102122.13;4938226;28;20041;-62
2021/12/18 15:42:21;;;;;;;2.50;0.65;;;;;;;9.14;100.00;102116.13;4951342;28;20105;-61
2021/12/18 15:45:24;;;;;;;0.55;0.30;;;;;;;9.05;100.00;102119.38;4921820;28;20055;-61
2021/12/18 15:48:28;;;;;;;3.47;0.68;;;;;;;8.74;100.00;102126.00;4889754;28;20592;-59
2021/12/18 15:51:32;;;;;;;0.73;0.40;;;;;;;8.58;100.00;102122.13;4890186;29;20114;-60
2021/12/18 15:54:35;;;;;;;0.25;0.25;;;;;;;8.50;100.00;102129.72;4898092;29;20110;-60
2021/12/18 15:57:38;;;;;;;1.60;0.43;;;;;;;8.45;100.00;102135.69;4924640;28;20133;-59
2021/12/18 16:00:42;;;;;;;0.28;0.28;;;;;;;8.46;100.00;102137.28;4953016;28;20109;-60
2021/12/18 16:03:45;;;;;;;2.22;0.43;;;;;;;8.62;100.00;102140.34;4952883;28;20502;-61
2021/12/18 16:06:49;;;;;;;25.75;1.08;;;;;;;8.60;100.00;102145.53;4955535;28;20494;-60
2021/12/18 16:09:53;;;;;;;0.22;0.22;;;;;;;8.45;100.00;102144.03;4953728;28;20075;-61
2021/12/18 16:12:57;;;;;;;0.95;0.38;;;;;;;8.67;100.00;102139.94;4942588;28;20554;-60
2021/12/18 16:16:32;;;;;;;4.72;0.52;;;;;;;8.70;100.00;102139.13;4919562;29;20049;-59
2021/12/18 16:19:35;;;;;;;8.05;1.10;;;;;;;8.78;100.00;102135.09;4915709;28;20058;-58
2021/12/18 16:22:52;;;;;;;11.32;2.67;;;;;;;8.90;100.00;102134.59;4864978;29;20066;-59
2021/12/18 16:26:04;;;;;;;1.23;0.77;;;;;;;8.95;100.00;102134.16;4905511;28;20058;-58
2021/12/18 16:29:09;;;;;;;8.88;1.30;;;;;;;9.10;100.00;102132.84;4884797;29;20184;-58
2021/12/18 16:32:13;;;;;;;1.63;0.50;;;;;;;9.11;100.00;102126.09;4921605;29;20261;-58
2021/12/18 16:35:17;;;;;;;2.80;0.50;;;;;;;9.09;100.00;102139.63;4920766;29;20071;-58
2021/12/18 16:41:23;;;;;;;2.05;0.20;;;;;;;9.02;100.00;102145.25;4888700;29;20055;-58
2021/12/18 16:44:27;;;;;;;7.13;1.80;;;;;;;9.03;100.00;102138.47;4852176;29;20406;-59
2021/12/18 16:47:30;;;;;;;4.15;0.90;;;;;;;8.73;100.00;102143.84;4940544;28;20523;-59
2021/12/18 16:50:36;;;;;;;5.78;1.02;;;;;;;8.67;100.00;102139.94;4954886;28;20134;-61
